createdAt,value
2019-01-31T00:03:52.677Z,84.97
2019-01-31T00:09:33.704Z,84.76
2019-01-31T00:15:03.317Z,85.90
2019-01-31T00:20:50.339Z,85.99
2019-01-31T00:26:20.422Z,85.99
2019-01-31T00:32:02.189Z,86.80
2019-01-31T00:37:27.290Z,87.67
2019-01-31T00:43:19.604Z,87.96
2019-01-31T00:48:37.710Z,87.29
2019-01-31T00:54:23.002Z,87.77
2019-01-31T00:59:55.126Z,88.54
2019-01-31T01:05:51.437Z,88.94
2019-01-31T01:11:33.718Z,88.98
2019-01-31T01:17:04.630Z,89.20
2019-01-31T01:22:25.723Z,89.56
2019-01-31T01:28:13.951Z,89.71
2019-01-31T01:33:55.179Z,89.99
2019-01-31T01:39:23.097Z,90.11
2019-01-31T01:44:45.264Z,90.07
2019-01-31T01:49:54.111Z,89.90
2019-01-31T01:55:06.074Z,89.82
2019-01-31T02:00:57.700Z,89.98
2019-01-31T02:06:47.454Z,89.88
2019-01-31T02:12:37.091Z,90.04
2019-01-31T02:17:48.404Z,89.88
2019-01-31T02:23:17.188Z,89.58
2019-01-31T02:28:40.537Z,89.20
2019-01-31T02:34:22.208Z,88.97
2019-01-31T02:40:13.522Z,89.13
2019-01-31T02:45:52.104Z,89.59
2019-01-31T02:51:38.793Z,89.64
2019-01-31T02:57:03.573Z,88.97
2019-01-31T03:02:30.744Z,89.14
2019-01-31T03:08:18.865Z,89.53
2019-01-31T03:13:44.683Z,89.57
2019-01-31T03:19:14.641Z,89.22
2019-01-31T03:24:45.835Z,89.75
2019-01-31T03:30:24.982Z,89.78
2019-01-31T03:35:58.872Z,89.85
2019-01-31T03:41:33.408Z,89.17
2019-01-31T03:46:58.521Z,88.99
2019-01-31T03:52:45.060Z,89.12
2019-01-31T03:58:40.976Z,88.90
2019-01-31T04:04:03.098Z,89.14
2019-01-31T04:09:07.971Z,89.13
2019-01-31T04:14:10.001Z,88.98
2019-01-31T04:19:12.293Z,89.29
2019-01-31T04:24:14.324Z,88.71
2019-01-31T04:29:16.352Z,88.83
2019-01-31T04:34:18.334Z,88.78
2019-01-31T04:39:20.316Z,88.23
2019-01-31T04:44:22.366Z,88.54
2019-01-31T04:49:24.376Z,88.53
2019-01-31T04:54:26.381Z,88.59
2019-01-31T04:59:28.327Z,88.02
2019-01-31T05:04:30.610Z,87.81
2019-01-31T05:09:32.678Z,87.58
2019-01-31T05:14:34.650Z,87.76
2019-01-31T05:19:36.704Z,87.56
2019-01-31T05:24:38.722Z,87.36
2019-01-31T05:29:40.758Z,87.63
2019-01-31T05:34:42.714Z,86.77
2019-01-31T05:39:44.671Z,86.90
2019-01-31T05:44:46.672Z,86.69
2019-01-31T05:49:48.728Z,85.81
2019-01-31T05:54:50.762Z,85.71
2019-01-31T05:59:52.765Z,84.87
2019-01-31T06:04:54.837Z,84.71
2019-01-31T06:09:56.834Z,84.81
2019-01-31T06:14:58.866Z,84.25
2019-01-31T06:20:01.180Z,83.64
2019-01-31T06:25:04.620Z,84.55
2019-01-31T06:30:07.997Z,84.56
2019-01-31T06:35:10.420Z,84.45
2019-01-31T06:40:14.734Z,83.80
2019-01-31T06:45:18.181Z,83.62
2019-01-31T06:50:20.230Z,82.91
2019-01-31T06:55:22.484Z,82.89
2019-01-31T07:00:24.509Z,82.71
2019-01-31T07:05:26.498Z,83.28
2019-01-31T07:10:28.480Z,82.75
2019-01-31T07:15:30.760Z,82.58
2019-01-31T07:20:32.853Z,82.67
2019-01-31T07:25:35.129Z,81.88
2019-01-31T07:30:37.117Z,82.43
2019-01-31T07:35:39.099Z,81.29
2019-01-31T07:40:41.075Z,80.87
2019-01-31T07:45:43.091Z,80.46
2019-01-31T07:50:45.077Z,80.40
2019-01-31T07:55:48.194Z,80.22
2019-01-31T08:00:50.165Z,80.09
2019-01-31T08:05:52.202Z,80.88
2019-01-31T08:10:54.207Z,80.99
2019-01-31T08:15:56.167Z,80.28
2019-01-31T08:20:58.134Z,80.59
2019-01-31T08:26:00.178Z,80.88
2019-01-31T08:31:02.155Z,80.56
2019-01-31T08:36:04.253Z,80.47
2019-01-31T08:41:06.271Z,80.50
2019-01-31T08:46:08.491Z,81.17
2019-01-31T08:51:10.515Z,80.70
2019-01-31T08:56:12.548Z,80.23
2019-01-31T09:01:15.720Z,79.72
2019-01-31T09:06:18.467Z,79.87
2019-01-31T09:11:20.484Z,79.49
2019-01-31T09:16:22.522Z,79.65
2019-01-31T09:21:50.257Z,79.82
2019-01-31T09:27:19.496Z,80.67
2019-01-31T09:32:54.210Z,81.56
2019-01-31T09:38:49.915Z,82.46
2019-01-31T09:44:48.787Z,82.89
2019-01-31T09:50:16.271Z,82.79
2019-01-31T09:56:06.021Z,82.20
2019-01-31T10:01:52.642Z,82.03
2019-01-31T10:07:25.090Z,83.33
2019-01-31T10:12:49.937Z,84.16
2019-01-31T10:18:22.592Z,85.77
2019-01-31T10:24:05.130Z,86.76
2019-01-31T10:29:48.718Z,87.94
2019-01-31T10:35:31.184Z,88.71
2019-01-31T10:40:59.709Z,89.21
2019-01-31T10:46:41.716Z,88.27
2019-01-31T10:52:15.000Z,87.59
2019-01-31T10:57:47.056Z,87.38
2019-01-31T11:03:16.747Z,86.52
2019-01-31T11:09:18.454Z,87.60
2019-01-31T11:15:17.056Z,87.83
2019-01-31T11:20:59.724Z,88.21
2019-01-31T11:26:40.221Z,88.46
2019-01-31T11:32:19.858Z,88.46
2019-01-31T11:37:53.854Z,88.53
2019-01-31T11:43:43.686Z,88.33
2019-01-31T11:49:13.779Z,87.89
2019-01-31T11:55:09.575Z,87.44
2019-01-31T12:00:13.800Z,87.06
2019-01-31T12:05:15.937Z,86.35
2019-01-31T12:10:18.220Z,85.96
2019-01-31T12:15:20.323Z,86.40
2019-01-31T12:20:22.357Z,86.83
2019-01-31T12:25:24.389Z,87.26
2019-01-31T12:30:26.755Z,87.38
2019-01-31T12:35:29.798Z,87.92
2019-01-31T12:40:32.092Z,88.45
2019-01-31T12:45:34.151Z,88.46
2019-01-31T12:50:36.263Z,88.00
2019-01-31T12:55:38.306Z,87.37
2019-01-31T13:00:40.413Z,86.69
2019-01-31T13:05:42.754Z,87.08
2019-01-31T13:10:44.779Z,87.50
2019-01-31T13:15:46.819Z,87.41
2019-01-31T13:20:48.829Z,87.19
2019-01-31T13:25:50.945Z,87.12
2019-01-31T13:30:52.958Z,86.67
2019-01-31T13:35:55.041Z,86.10
2019-01-31T13:40:57.012Z,86.27
2019-01-31T13:45:59.077Z,86.49
2019-01-31T13:51:03.087Z,86.41
2019-01-31T13:56:05.966Z,85.70
2019-01-31T14:01:08.036Z,86.31
2019-01-31T14:06:10.032Z,86.60
2019-01-31T14:11:12.007Z,85.65
2019-01-31T14:16:14.308Z,84.94
2019-01-31T14:21:16.348Z,83.93
2019-01-31T14:26:18.361Z,83.77
2019-01-31T14:31:21.434Z,84.17
2019-01-31T14:36:23.592Z,83.38
2019-01-31T14:41:25.594Z,83.60
2019-01-31T14:46:27.873Z,83.69
2019-01-31T14:51:29.986Z,84.24
2019-01-31T14:56:32.053Z,84.40
2019-01-31T15:01:34.144Z,83.82
2019-01-31T15:06:36.240Z,83.47
2019-01-31T15:11:38.621Z,83.38
2019-01-31T15:16:40.953Z,82.73
2019-01-31T15:21:42.982Z,82.74
2019-01-31T15:26:45.009Z,82.86
2019-01-31T15:31:47.347Z,81.93
2019-01-31T15:36:49.498Z,81.84
2019-01-31T15:41:51.583Z,81.44
2019-01-31T15:46:53.920Z,82.09
2019-01-31T15:51:56.044Z,82.54
2019-01-31T15:56:58.136Z,82.90
2019-01-31T16:02:00.196Z,82.45
2019-01-31T16:07:02.608Z,83.12
2019-01-31T16:12:04.713Z,83.89
2019-01-31T16:17:06.724Z,83.98
2019-01-31T16:22:08.842Z,84.44
2019-01-31T16:27:13.078Z,84.99
2019-01-31T16:32:15.109Z,85.29
2019-01-31T16:37:17.460Z,85.17
2019-01-31T16:42:19.522Z,85.57
2019-01-31T16:47:21.506Z,85.71
2019-01-31T16:52:23.552Z,85.81
2019-01-31T16:57:25.624Z,85.75
2019-01-31T17:02:27.772Z,85.39
2019-01-31T17:07:29.752Z,86.05
2019-01-31T17:12:31.816Z,86.48
2019-01-31T17:17:33.977Z,86.81
2019-01-31T17:22:35.981Z,87.00
2019-01-31T17:27:37.980Z,86.84
2019-01-31T17:32:40.390Z,87.27
2019-01-31T17:37:42.412Z,87.17
2019-01-31T17:42:44.423Z,86.46
2019-01-31T17:47:46.433Z,86.35
2019-01-31T17:52:48.761Z,85.32
2019-01-31T17:57:50.864Z,84.85
2019-01-31T18:02:52.895Z,84.53
2019-01-31T18:07:54.903Z,84.67
2019-01-31T18:12:56.906Z,85.32
2019-01-31T18:17:58.902Z,85.34
2019-01-31T18:23:01.098Z,85.39
2019-01-31T18:28:03.330Z,85.67
2019-01-31T18:33:05.370Z,86.20
2019-01-31T18:38:07.567Z,86.15
2019-01-31T18:43:09.720Z,86.21
2019-01-31T18:48:13.110Z,86.07
2019-01-31T18:53:15.124Z,86.35
2019-01-31T18:58:17.411Z,86.54
2019-01-31T19:03:20.804Z,86.37
2019-01-31T19:08:23.036Z,86.73
2019-01-31T19:45:17.953Z,87.16
2019-01-31T21:30:24.546Z,86.14
2019-01-31T22:48:07.508Z,83.00
2019-01-31T23:38:27.995Z,82.85
2019-01-31T23:51:26.849Z,82.60
